sensor_id;sensor_type;location;lat;lon;timestamp;P1;durP1;ratioP1;P2;durP2;ratioP2
46607;SDS011;32330;51.936;7.184;2023-04-01T03:49:23;2.88;;;1.90;;
46607;SDS011;32330;51.936;7.184;2023-04-01T03:51:50;2.40;;;2.00;;
46607;SDS011;32330;51.936;7.184;2023-04-01T03:54:17;2.30;;;1.70;;
46607;SDS011;32330;51.936;7.184;2023-04-01T03:56:45;2.08;;;1.88;;
46607;SDS011;32330;51.936;7.184;2023-04-01T03:59:12;2.17;;;1.77;;
46607;SDS011;32330;51.936;7.184;2023-04-01T04:01:40;2.55;;;2.10;;
46607;SDS011;32330;51.936;7.184;2023-04-01T04:04:07;2.25;;;1.75;;
46607;SDS011;32330;51.936;7.184;2023-04-01T04:06:38;2.15;;;1.50;;
46607;SDS011;32330;51.936;7.184;2023-04-01T04:09:05;2.40;;;2.20;;
46607;SDS011;32330;51.936;7.184;2023-04-01T04:11:32;2.20;;;1.77;;
46607;SDS011;32330;51.936;7.184;2023-04-01T04:13:59;2.17;;;1.80;;
46607;SDS011;32330;51.936;7.184;2023-04-01T04:16:27;2.55;;;1.83;;
46607;SDS011;32330;51.936;7.184;2023-04-01T04:19:00;2.50;;;2.00;;
46607;SDS011;32330;51.936;7.184;2023-04-01T04:21:27;1.98;;;1.75;;
46607;SDS011;32330;51.936;7.184;2023-04-01T04:23:55;3.95;;;2.17;;
46607;SDS011;32330;51.936;7.184;2023-04-01T04:26:22;2.20;;;1.83;;
46607;SDS011;32330;51.936;7.184;2023-04-01T04:28:55;2.22;;;1.98;;
46607;SDS011;32330;51.936;7.184;2023-04-01T04:31:24;2.58;;;1.67;;
46607;SDS011;32330;51.936;7.184;2023-04-01T04:33:54;3.40;;;1.73;;
46607;SDS011;32330;51.936;7.184;2023-04-01T04:36:21;2.38;;;2.17;;
46607;SDS011;32330;51.936;7.184;2023-04-01T04:38:49;1.83;;;1.60;;
46607;SDS011;32330;51.936;7.184;2023-04-01T04:41:18;3.03;;;2.25;;
46607;SDS011;32330;51.936;7.184;2023-04-01T04:43:49;2.30;;;1.92;;
46607;SDS011;32330;51.936;7.184;2023-04-01T04:46:17;3.47;;;2.38;;
46607;SDS011;32330;51.936;7.184;2023-04-01T04:48:46;2.97;;;2.58;;
46607;SDS011;32330;51.936;7.184;2023-04-01T04:51:14;4.60;;;2.88;;
46607;SDS011;32330;51.936;7.184;2023-04-01T04:53:42;4.13;;;2.60;;
46607;SDS011;32330;51.936;7.184;2023-04-01T04:56:09;4.18;;;3.13;;
46607;SDS011;32330;51.936;7.184;2023-04-01T04:58:47;4.53;;;3.60;;
46607;SDS011;32330;51.936;7.184;2023-04-01T05:01:19;4.38;;;3.97;;
46607;SDS011;32330;51.936;7.184;2023-04-01T05:03:46;3.63;;;3.33;;
46607;SDS011;32330;51.936;7.184;2023-04-01T05:06:14;4.18;;;3.53;;
46607;SDS011;32330;51.936;7.184;2023-04-01T05:08:43;3.90;;;3.28;;
46607;SDS011;32330;51.936;7.184;2023-04-01T05:11:11;3.60;;;3.10;;
46607;SDS011;32330;51.936;7.184;2023-04-01T05:13:42;3.78;;;3.33;;
46607;SDS011;32330;51.936;7.184;2023-04-01T05:16:11;3.22;;;2.92;;
46607;SDS011;32330;51.936;7.184;2023-04-01T05:18:39;4.15;;;3.20;;
46607;SDS011;32330;51.936;7.184;2023-04-01T05:21:07;4.10;;;3.20;;
46607;SDS011;32330;51.936;7.184;2023-04-01T05:23:35;4.28;;;3.88;;
46607;SDS011;32330;51.936;7.184;2023-04-01T05:26:03;3.60;;;3.17;;
46607;SDS011;32330;51.936;7.184;2023-04-01T05:28:31;4.43;;;3.88;;
46607;SDS011;32330;51.936;7.184;2023-04-01T05:30:58;4.50;;;3.97;;
46607;SDS011;32330;51.936;7.184;2023-04-01T05:33:31;5.65;;;3.80;;
46607;SDS011;32330;51.936;7.184;2023-04-01T05:36:05;4.13;;;3.72;;
46607;SDS011;32330;51.936;7.184;2023-04-01T05:38:32;4.88;;;3.63;;
46607;SDS011;32330;51.936;7.184;2023-04-01T05:41:00;4.20;;;3.80;;
46607;SDS011;32330;51.936;7.184;2023-04-01T05:43:28;5.88;;;3.53;;
46607;SDS011;32330;51.936;7.184;2023-04-01T05:45:59;4.65;;;4.00;;
46607;SDS011;32330;51.936;7.184;2023-04-01T05:48:36;7.38;;;5.90;;
46607;SDS011;32330;51.936;7.184;2023-04-01T05:51:03;5.55;;;4.40;;
46607;SDS011;32330;51.936;7.184;2023-04-01T05:53:31;4.47;;;4.03;;
46607;SDS011;32330;51.936;7.184;2023-04-01T05:56:01;4.95;;;4.00;;
46607;SDS011;32330;51.936;7.184;2023-04-01T05:58:36;5.05;;;3.78;;
46607;SDS011;32330;51.936;7.184;2023-04-01T06:01:04;5.30;;;3.63;;
46607;SDS011;32330;51.936;7.184;2023-04-01T06:03:32;4.43;;;4.03;;
46607;SDS011;32330;51.936;7.184;2023-04-01T06:06:01;4.53;;;3.63;;
46607;SDS011;32330;51.936;7.184;2023-04-01T06:08:30;4.05;;;3.60;;
46607;SDS011;32330;51.936;7.184;2023-04-01T06:11:01;3.63;;;3.33;;
46607;SDS011;32330;51.936;7.184;2023-04-01T06:13:50;4.70;;;4.30;;
46607;SDS011;32330;51.936;7.184;2023-04-01T06:16:45;6.65;;;3.60;;
46607;SDS011;32330;51.936;7.184;2023-04-01T06:19:29;4.45;;;3.90;;
46607;SDS011;32330;51.936;7.184;2023-04-01T06:22:11;4.72;;;3.78;;
46607;SDS011;32330;51.936;7.184;2023-04-01T06:25:02;3.53;;;3.22;;
46607;SDS011;32330;51.936;7.184;2023-04-01T06:27:53;4.00;;;3.60;;
46607;SDS011;32330;51.936;7.184;2023-04-01T06:30:38;4.25;;;3.15;;
46607;SDS011;32330;51.936;7.184;2023-04-01T06:33:16;3.50;;;3.10;;
46607;SDS011;32330;51.936;7.184;2023-04-01T06:36:00;4.00;;;3.05;;
46607;SDS011;32330;51.936;7.184;2023-04-01T06:38:48;3.45;;;3.15;;
46607;SDS011;32330;51.936;7.184;2023-04-01T06:41:35;3.47;;;3.00;;
46607;SDS011;32330;51.936;7.184;2023-04-01T06:44:38;3.22;;;2.92;;
46607;SDS011;32330;51.936;7.184;2023-04-01T06:47:36;3.25;;;2.95;;
46607;SDS011;32330;51.936;7.184;2023-04-01T06:50:32;3.10;;;2.80;;
46607;SDS011;32330;51.936;7.184;2023-04-01T06:53:09;2.97;;;2.78;;
46607;SDS011;32330;51.936;7.184;2023-04-01T06:58:49;2.75;;;2.50;;
46607;SDS011;32330;51.936;7.184;2023-04-01T07:01:20;2.85;;;2.55;;
46607;SDS011;32330;51.936;7.184;2023-04-01T07:03:51;3.75;;;3.45;;
46607;SDS011;32330;51.936;7.184;2023-04-01T07:06:26;3.60;;;3.28;;
46607;SDS011;32330;51.936;7.184;2023-04-01T07:08:58;3.90;;;3.20;;
46607;SDS011;32330;51.936;7.184;2023-04-01T07:11:44;3.65;;;3.33;;
46607;SDS011;32330;51.936;7.184;2023-04-01T07:14:39;4.43;;;4.03;;
46607;SDS011;32330;51.936;7.184;2023-04-01T07:17:08;3.90;;;3.60;;
46607;SDS011;32330;51.936;7.184;2023-04-01T07:19:42;3.97;;;3.67;;
46607;SDS011;32330;51.936;7.184;2023-04-01T07:22:14;3.97;;;3.67;;
46607;SDS011;32330;51.936;7.184;2023-04-01T07:25:11;4.13;;;3.72;;
46607;SDS011;32330;51.936;7.184;2023-04-01T07:27:43;5.30;;;4.82;;
46607;SDS011;32330;51.936;7.184;2023-04-01T07:30:13;4.65;;;4.25;;
46607;SDS011;32330;51.936;7.184;2023-04-01T07:32:42;4.60;;;4.15;;
46607;SDS011;32330;51.936;7.184;2023-04-01T07:35:16;5.00;;;4.45;;
46607;SDS011;32330;51.936;7.184;2023-04-01T07:38:01;5.45;;;4.63;;
46607;SDS011;32330;51.936;7.184;2023-04-01T07:40:39;5.63;;;5.13;;
46607;SDS011;32330;51.936;7.184;2023-04-01T07:43:25;5.30;;;4.80;;
46607;SDS011;32330;51.936;7.184;2023-04-01T07:46:24;5.80;;;5.05;;
46607;SDS011;32330;51.936;7.184;2023-04-01T07:49:10;4.95;;;4.55;;
46607;SDS011;32330;51.936;7.184;2023-04-01T07:51:43;4.72;;;4.32;;
46607;SDS011;32330;51.936;7.184;2023-04-01T07:54:17;4.45;;;4.05;;
46607;SDS011;32330;51.936;7.184;2023-04-01T07:56:49;4.57;;;4.18;;
46607;SDS011;32330;51.936;7.184;2023-04-01T07:59:43;4.32;;;3.92;;
46607;SDS011;32330;51.936;7.184;2023-04-01T08:02:28;4.40;;;4.00;;
46607;SDS011;32330;51.936;7.184;2023-04-01T08:05:12;4.40;;;4.00;;
46607;SDS011;32330;51.936;7.184;2023-04-01T08:07:44;4.50;;;4.10;;
46607;SDS011;32330;51.936;7.184;2023-04-01T08:10:39;3.58;;;3.28;;
46607;SDS011;32330;51.936;7.184;2023-04-01T08:13:37;3.72;;;3.42;;
46607;SDS011;32330;51.936;7.184;2023-04-01T08:16:33;3.53;;;2.90;;
46607;SDS011;32330;51.936;7.184;2023-04-01T08:19:14;3.22;;;2.92;;
46607;SDS011;32330;51.936;7.184;2023-04-01T08:21:50;4.00;;;3.58;;
46607;SDS011;32330;51.936;7.184;2023-04-01T08:24:23;3.25;;;2.95;;
46607;SDS011;32330;51.936;7.184;2023-04-01T08:26:56;4.32;;;3.63;;
46607;SDS011;32330;51.936;7.184;2023-04-01T08:29:31;3.55;;;3.25;;
46607;SDS011;32330;51.936;7.184;2023-04-01T08:32:08;3.70;;;3.40;;
46607;SDS011;32330;51.936;7.184;2023-04-01T08:34:40;3.67;;;3.38;;
46607;SDS011;32330;51.936;7.184;2023-04-01T08:37:23;4.15;;;3.75;;
46607;SDS011;32330;51.936;7.184;2023-04-01T08:39:57;3.20;;;2.90;;
46607;SDS011;32330;51.936;7.184;2023-04-01T08:42:31;4.07;;;3.67;;
46607;SDS011;32330;51.936;7.184;2023-04-01T08:45:18;3.53;;;3.22;;
46607;SDS011;32330;51.936;7.184;2023-04-01T08:47:59;3.50;;;3.20;;
46607;SDS011;32330;51.936;7.184;2023-04-01T08:53:38;3.78;;;3.45;;
46607;SDS011;32330;51.936;7.184;2023-04-01T08:56:21;3.28;;;2.97;;
46607;SDS011;32330;51.936;7.184;2023-04-01T08:59:17;4.53;;;4.13;;
46607;SDS011;32330;51.936;7.184;2023-04-01T09:05:28;3.20;;;2.90;;
46607;SDS011;32330;51.936;7.184;2023-04-01T09:08:08;3.75;;;3.13;;
46607;SDS011;32330;51.936;7.184;2023-04-01T09:10:59;2.35;;;2.15;;
46607;SDS011;32330;51.936;7.184;2023-04-01T09:13:57;3.40;;;3.10;;
46607;SDS011;32330;51.936;7.184;2023-04-01T09:16:53;3.28;;;2.97;;
46607;SDS011;32330;51.936;7.184;2023-04-01T09:19:50;2.30;;;2.10;;
46607;SDS011;32330;51.936;7.184;2023-04-01T09:22:37;2.60;;;2.33;;
46607;SDS011;32330;51.936;7.184;2023-04-01T09:28:17;2.60;;;2.15;;
46607;SDS011;32330;51.936;7.184;2023-04-01T09:31:11;2.28;;;2.08;;
46607;SDS011;32330;51.936;7.184;2023-04-01T09:34:35;2.67;;;2.42;;
46607;SDS011;32330;51.936;7.184;2023-04-01T09:37:19;3.35;;;2.85;;
46607;SDS011;32330;51.936;7.184;2023-04-01T09:40:08;2.22;;;2.03;;
46607;SDS011;32330;51.936;7.184;2023-04-01T09:42:45;1.90;;;1.80;;
46607;SDS011;32330;51.936;7.184;2023-04-01T09:45:29;1.80;;;1.60;;
46607;SDS011;32330;51.936;7.184;2023-04-01T09:48:11;2.20;;;1.98;;
46607;SDS011;32330;51.936;7.184;2023-04-01T09:51:01;1.80;;;1.60;;
46607;SDS011;32330;51.936;7.184;2023-04-01T09:53:46;2.08;;;1.88;;
46607;SDS011;32330;51.936;7.184;2023-04-01T09:56:33;1.98;;;1.77;;
46607;SDS011;32330;51.936;7.184;2023-04-01T10:06:13;2.30;;;2.10;;
46607;SDS011;32330;51.936;7.184;2023-04-01T10:09:12;1.70;;;1.50;;
46607;SDS011;32330;51.936;7.184;2023-04-01T10:12:05;1.85;;;1.65;;
46607;SDS011;32330;51.936;7.184;2023-04-01T10:18:16;1.40;;;1.17;;
46607;SDS011;32330;51.936;7.184;2023-04-01T10:21:27;2.78;;;1.40;;
46607;SDS011;32330;51.936;7.184;2023-04-01T10:24:25;1.25;;;1.02;;
46607;SDS011;32330;51.936;7.184;2023-04-01T10:27:22;1.98;;;0.95;;
46607;SDS011;32330;51.936;7.184;2023-04-01T10:33:54;3.65;;;2.25;;
46607;SDS011;32330;51.936;7.184;2023-04-01T10:36:53;3.25;;;2.33;;
46607;SDS011;32330;51.936;7.184;2023-04-01T10:39:32;2.95;;;2.20;;
46607;SDS011;32330;51.936;7.184;2023-04-01T10:42:45;2.13;;;1.92;;
46607;SDS011;32330;51.936;7.184;2023-04-01T10:52:07;3.20;;;1.75;;
46607;SDS011;32330;51.936;7.184;2023-04-01T10:55:37;4.05;;;2.40;;
46607;SDS011;32330;51.936;7.184;2023-04-01T11:12:23;1.73;;;0.77;;
46607;SDS011;32330;51.936;7.184;2023-04-01T11:15:28;2.92;;;2.22;;
46607;SDS011;32330;51.936;7.184;2023-04-01T11:21:46;2.53;;;1.67;;
46607;SDS011;32330;51.936;7.184;2023-04-01T11:24:40;1.98;;;1.40;;
46607;SDS011;32330;51.936;7.184;2023-04-01T11:27:38;1.92;;;1.58;;
46607;SDS011;32330;51.936;7.184;2023-04-01T11:30:22;1.58;;;0.93;;
46607;SDS011;32330;51.936;7.184;2023-04-01T11:32:57;1.75;;;1.13;;
46607;SDS011;32330;51.936;7.184;2023-04-01T11:38:42;1.17;;;0.88;;
46607;SDS011;32330;51.936;7.184;2023-04-01T11:41:43;1.77;;;1.40;;
46607;SDS011;32330;51.936;7.184;2023-04-01T11:44:37;1.00;;;0.70;;
46607;SDS011;32330;51.936;7.184;2023-04-01T11:47:19;1.30;;;0.80;;
46607;SDS011;32330;51.936;7.184;2023-04-01T11:49:57;2.60;;;1.58;;
46607;SDS011;32330;51.936;7.184;2023-04-01T11:55:34;1.75;;;1.30;;
46607;SDS011;32330;51.936;7.184;2023-04-01T11:58:23;1.83;;;1.15;;
46607;SDS011;32330;51.936;7.184;2023-04-01T12:01:13;1.67;;;1.00;;
46607;SDS011;32330;51.936;7.184;2023-04-01T12:03:54;1.52;;;0.93;;
46607;SDS011;32330;51.936;7.184;2023-04-01T12:06:38;1.30;;;1.00;;
46607;SDS011;32330;51.936;7.184;2023-04-01T12:09:16;1.58;;;1.10;;
46607;SDS011;32330;51.936;7.184;2023-04-01T12:11:52;1.13;;;0.75;;
46607;SDS011;32330;51.936;7.184;2023-04-01T12:14:30;1.30;;;0.85;;
46607;SDS011;32330;51.936;7.184;2023-04-01T12:17:03;0.88;;;0.57;;
46607;SDS011;32330;51.936;7.184;2023-04-01T12:19:39;1.42;;;0.70;;
46607;SDS011;32330;51.936;7.184;2023-04-01T12:22:22;1.60;;;0.50;;
46607;SDS011;32330;51.936;7.184;2023-04-01T12:24:59;0.73;;;0.50;;
46607;SDS011;32330;51.936;7.184;2023-04-01T12:27:43;1.33;;;0.50;;
46607;SDS011;32330;51.936;7.184;2023-04-01T12:30:34;1.73;;;1.00;;
46607;SDS011;32330;51.936;7.184;2023-04-01T12:33:18;0.63;;;0.50;;
46607;SDS011;32330;51.936;7.184;2023-04-01T12:38:36;2.35;;;1.10;;
46607;SDS011;32330;51.936;7.184;2023-04-01T12:45:33;1.48;;;0.80;;
46607;SDS011;32330;51.936;7.184;2023-04-01T12:48:12;1.30;;;0.80;;
46607;SDS011;32330;51.936;7.184;2023-04-01T12:54:20;1.92;;;0.70;;
46607;SDS011;32330;51.936;7.184;2023-04-01T12:57:09;1.13;;;0.75;;
46607;SDS011;32330;51.936;7.184;2023-04-01T12:59:54;1.15;;;0.90;;
46607;SDS011;32330;51.936;7.184;2023-04-01T13:02:43;1.35;;;0.95;;
46607;SDS011;32330;51.936;7.184;2023-04-01T13:05:25;2.33;;;1.00;;
46607;SDS011;32330;51.936;7.184;2023-04-01T13:08:11;1.35;;;0.90;;
46607;SDS011;32330;51.936;7.184;2023-04-01T13:13:43;1.58;;;1.17;;
46607;SDS011;32330;51.936;7.184;2023-04-01T13:16:35;2.22;;;1.77;;
46607;SDS011;32330;51.936;7.184;2023-04-01T13:19:08;1.70;;;1.30;;
46607;SDS011;32330;51.936;7.184;2023-04-01T13:21:43;2.50;;;1.65;;
46607;SDS011;32330;51.936;7.184;2023-04-01T13:24:22;1.67;;;1.40;;
46607;SDS011;32330;51.936;7.184;2023-04-01T13:26:58;1.95;;;1.50;;
46607;SDS011;32330;51.936;7.184;2023-04-01T13:29:32;2.60;;;2.40;;
46607;SDS011;32330;51.936;7.184;2023-04-01T13:32:05;4.90;;;2.47;;
46607;SDS011;32330;51.936;7.184;2023-04-01T13:34:46;2.10;;;1.83;;
46607;SDS011;32330;51.936;7.184;2023-04-01T13:40:02;2.83;;;2.00;;
46607;SDS011;32330;51.936;7.184;2023-04-01T13:42:41;1.63;;;1.52;;
46607;SDS011;32330;51.936;7.184;2023-04-01T13:45:14;2.00;;;1.70;;
46607;SDS011;32330;51.936;7.184;2023-04-01T13:47:57;2.25;;;1.70;;
46607;SDS011;32330;51.936;7.184;2023-04-01T13:54:04;2.20;;;2.00;;
46607;SDS011;32330;51.936;7.184;2023-04-01T13:56:50;2.20;;;1.95;;
46607;SDS011;32330;51.936;7.184;2023-04-01T13:59:46;1.98;;;1.75;;
46607;SDS011;32330;51.936;7.184;2023-04-01T14:05:36;2.95;;;2.60;;
46607;SDS011;32330;51.936;7.184;2023-04-01T14:08:15;3.75;;;3.40;;
46607;SDS011;32330;51.936;7.184;2023-04-01T14:10:53;6.00;;;3.92;;
46607;SDS011;32330;51.936;7.184;2023-04-01T14:13:31;5.43;;;4.10;;
46607;SDS011;32330;51.936;7.184;2023-04-01T14:16:16;5.20;;;4.63;;
46607;SDS011;32330;51.936;7.184;2023-04-01T14:19:08;5.07;;;4.68;;
46607;SDS011;32330;51.936;7.184;2023-04-01T14:21:46;5.38;;;4.88;;
46607;SDS011;32330;51.936;7.184;2023-04-01T14:24:23;5.47;;;4.97;;
46607;SDS011;32330;51.936;7.184;2023-04-01T14:27:18;6.05;;;5.53;;
46607;SDS011;32330;51.936;7.184;2023-04-01T14:30:25;6.07;;;5.57;;
46607;SDS011;32330;51.936;7.184;2023-04-01T14:33:04;6.95;;;6.35;;
46607;SDS011;32330;51.936;7.184;2023-04-01T14:35:41;7.85;;;6.95;;
46607;SDS011;32330;51.936;7.184;2023-04-01T14:38:17;7.15;;;6.45;;
46607;SDS011;32330;51.936;7.184;2023-04-01T14:40:56;6.50;;;5.88;;
46607;SDS011;32330;51.936;7.184;2023-04-01T14:46:39;7.20;;;5.97;;
46607;SDS011;32330;51.936;7.184;2023-04-01T14:49:22;6.75;;;6.07;;
46607;SDS011;32330;51.936;7.184;2023-04-01T14:51:57;8.70;;;6.55;;
46607;SDS011;32330;51.936;7.184;2023-04-01T14:54:32;7.63;;;6.57;;
46607;SDS011;32330;51.936;7.184;2023-04-01T14:57:05;6.57;;;5.97;;
46607;SDS011;32330;51.936;7.184;2023-04-01T14:59:40;6.00;;;5.50;;
46607;SDS011;32330;51.936;7.184;2023-04-01T15:02:16;4.68;;;4.30;;
46607;SDS011;32330;51.936;7.184;2023-04-01T15:04:57;5.95;;;5.35;;
46607;SDS011;32330;51.936;7.184;2023-04-01T15:10:31;3.90;;;3.53;;
46607;SDS011;32330;51.936;7.184;2023-04-01T15:13:18;4.65;;;3.47;;
46607;SDS011;32330;51.936;7.184;2023-04-01T15:16:04;2.97;;;2.70;;
46607;SDS011;32330;51.936;7.184;2023-04-01T15:18:40;4.78;;;2.42;;
46607;SDS011;32330;51.936;7.184;2023-04-01T15:21:26;3.10;;;2.80;;
46607;SDS011;32330;51.936;7.184;2023-04-01T15:24:13;2.88;;;2.58;;
46607;SDS011;32330;51.936;7.184;2023-04-01T15:26:50;2.72;;;2.45;;
46607;SDS011;32330;51.936;7.184;2023-04-01T15:29:34;4.13;;;3.72;;
46607;SDS011;32330;51.936;7.184;2023-04-01T15:32:29;3.78;;;3.30;;
46607;SDS011;32330;51.936;7.184;2023-04-01T15:35:10;4.53;;;3.43;;
46607;SDS011;32330;51.936;7.184;2023-04-01T15:37:46;4.03;;;3.63;;
46607;SDS011;32330;51.936;7.184;2023-04-01T15:40:19;4.07;;;3.60;;
46607;SDS011;32330;51.936;7.184;2023-04-01T15:43:00;4.03;;;3.53;;
46607;SDS011;32330;51.936;7.184;2023-04-01T15:45:34;3.20;;;2.90;;
46607;SDS011;32330;51.936;7.184;2023-04-01T15:48:17;4.50;;;3.00;;
46607;SDS011;32330;51.936;7.184;2023-04-01T15:50:53;3.15;;;2.55;;
46607;SDS011;32330;51.936;7.184;2023-04-01T15:53:43;3.25;;;2.90;;
46607;SDS011;32330;51.936;7.184;2023-04-01T15:56:43;3.40;;;3.10;;
46607;SDS011;32330;51.936;7.184;2023-04-01T15:59:24;3.00;;;2.70;;
46607;SDS011;32330;51.936;7.184;2023-04-01T16:02:07;3.60;;;2.90;;
46607;SDS011;32330;51.936;7.184;2023-04-01T16:04:49;2.78;;;2.35;;
46607;SDS011;32330;51.936;7.184;2023-04-01T16:07:30;3.17;;;2.55;;
46607;SDS011;32330;51.936;7.184;2023-04-01T16:10:16;2.30;;;2.10;;
46607;SDS011;32330;51.936;7.184;2023-04-01T16:13:01;3.10;;;2.80;;
46607;SDS011;32330;51.936;7.184;2023-04-01T16:15:39;3.17;;;2.88;;
46607;SDS011;32330;51.936;7.184;2023-04-01T16:18:17;3.08;;;2.78;;
46607;SDS011;32330;51.936;7.184;2023-04-01T16:21:01;3.30;;;3.00;;
46607;SDS011;32330;51.936;7.184;2023-04-01T16:23:35;4.50;;;3.05;;
46607;SDS011;32330;51.936;7.184;2023-04-01T16:26:06;4.00;;;2.92;;
46607;SDS011;32330;51.936;7.184;2023-04-01T16:28:40;3.97;;;2.67;;
46607;SDS011;32330;51.936;7.184;2023-04-01T16:31:15;3.30;;;2.75;;
46607;SDS011;32330;51.936;7.184;2023-04-01T16:33:56;2.90;;;2.38;;
46607;SDS011;32330;51.936;7.184;2023-04-01T16:36:29;2.50;;;2.15;;
46607;SDS011;32330;51.936;7.184;2023-04-01T16:39:08;2.55;;;2.33;;
46607;SDS011;32330;51.936;7.184;2023-04-01T16:41:57;2.15;;;1.83;;
46607;SDS011;32330;51.936;7.184;2023-04-01T16:44:44;1.80;;;1.55;;
46607;SDS011;32330;51.936;7.184;2023-04-01T16:47:17;2.05;;;1.80;;
46607;SDS011;32330;51.936;7.184;2023-04-01T16:49:50;1.75;;;1.45;;
46607;SDS011;32330;51.936;7.184;2023-04-01T16:52:31;2.95;;;1.98;;
46607;SDS011;32330;51.936;7.184;2023-04-01T16:55:13;3.17;;;2.60;;
46607;SDS011;32330;51.936;7.184;2023-04-01T16:57:46;2.05;;;1.60;;
46607;SDS011;32330;51.936;7.184;2023-04-01T17:00:19;2.67;;;1.70;;
46607;SDS011;32330;51.936;7.184;2023-04-01T17:02:54;1.92;;;1.52;;
46607;SDS011;32330;51.936;7.184;2023-04-01T17:05:37;1.60;;;1.40;;
46607;SDS011;32330;51.936;7.184;2023-04-01T17:08:16;2.20;;;1.50;;
46607;SDS011;32330;51.936;7.184;2023-04-01T17:10:51;1.60;;;1.00;;
46607;SDS011;32330;51.936;7.184;2023-04-01T17:13:27;1.30;;;0.88;;
46607;SDS011;32330;51.936;7.184;2023-04-01T17:16:06;1.55;;;0.70;;
46607;SDS011;32330;51.936;7.184;2023-04-01T17:18:45;0.90;;;0.70;;
46607;SDS011;32330;51.936;7.184;2023-04-01T17:21:18;0.93;;;0.55;;
46607;SDS011;32330;51.936;7.184;2023-04-01T17:23:58;1.13;;;0.73;;
46607;SDS011;32330;51.936;7.184;2023-04-01T17:26:32;1.52;;;0.68;;
46607;SDS011;32330;51.936;7.184;2023-04-01T17:29:05;1.42;;;0.60;;
46607;SDS011;32330;51.936;7.184;2023-04-01T17:31:50;0.88;;;0.70;;
46607;SDS011;32330;51.936;7.184;2023-04-01T17:37:17;2.28;;;0.93;;
46607;SDS011;32330;51.936;7.184;2023-04-01T17:39:59;1.38;;;0.82;;
46607;SDS011;32330;51.936;7.184;2023-04-01T17:42:39;1.23;;;0.93;;
46607;SDS011;32330;51.936;7.184;2023-04-01T17:45:10;1.30;;;0.90;;
46607;SDS011;32330;51.936;7.184;2023-04-01T17:47:49;1.25;;;1.00;;
46607;SDS011;32330;51.936;7.184;2023-04-01T17:50:27;1.25;;;0.90;;
46607;SDS011;32330;51.936;7.184;2023-04-01T17:53:04;1.70;;;1.42;;
46607;SDS011;32330;51.936;7.184;2023-04-01T17:55:43;1.35;;;0.90;;
46607;SDS011;32330;51.936;7.184;2023-04-01T17:58:20;1.80;;;0.82;;
46607;SDS011;32330;51.936;7.184;2023-04-01T18:01:01;1.92;;;0.70;;
46607;SDS011;32330;51.936;7.184;2023-04-01T18:03:54;1.83;;;0.80;;
46607;SDS011;32330;51.936;7.184;2023-04-01T18:06:34;0.60;;;0.43;;
46607;SDS011;32330;51.936;7.184;2023-04-01T18:09:05;1.25;;;0.80;;
46607;SDS011;32330;51.936;7.184;2023-04-01T18:11:48;1.20;;;0.80;;
46607;SDS011;32330;51.936;7.184;2023-04-01T18:14:27;1.55;;;0.75;;
46607;SDS011;32330;51.936;7.184;2023-04-01T18:17:18;1.20;;;0.70;;
46607;SDS011;32330;51.936;7.184;2023-04-01T18:20:02;1.17;;;1.00;;
46607;SDS011;32330;51.936;7.184;2023-04-01T18:22:42;1.60;;;0.85;;
46607;SDS011;32330;51.936;7.184;2023-04-01T18:25:18;1.38;;;1.02;;
46607;SDS011;32330;51.936;7.184;2023-04-01T18:27:51;1.40;;;0.90;;
46607;SDS011;32330;51.936;7.184;2023-04-01T18:30:26;1.73;;;1.27;;
46607;SDS011;32330;51.936;7.184;2023-04-01T18:32:57;1.98;;;0.85;;
46607;SDS011;32330;51.936;7.184;2023-04-01T18:35:29;1.52;;;1.20;;
46607;SDS011;32330;51.936;7.184;2023-04-01T18:38:11;1.30;;;1.00;;
46607;SDS011;32330;51.936;7.184;2023-04-01T18:40:41;1.23;;;1.05;;
46607;SDS011;32330;51.936;7.184;2023-04-01T18:43:16;1.27;;;0.90;;
46607;SDS011;32330;51.936;7.184;2023-04-01T18:45:51;1.40;;;1.17;;
46607;SDS011;32330;51.936;7.184;2023-04-01T18:48:32;1.40;;;1.10;;
46607;SDS011;32330;51.936;7.184;2023-04-01T18:51:10;1.10;;;0.90;;
46607;SDS011;32330;51.936;7.184;2023-04-01T18:53:41;1.17;;;0.80;;
46607;SDS011;32330;51.936;7.184;2023-04-01T18:56:13;1.20;;;0.80;;
46607;SDS011;32330;51.936;7.184;2023-04-01T18:58:52;1.02;;;0.80;;
46607;SDS011;32330;51.936;7.184;2023-04-01T19:01:26;0.90;;;0.60;;
46607;SDS011;32330;51.936;7.184;2023-04-01T19:04:03;0.93;;;0.70;;
46607;SDS011;32330;51.936;7.184;2023-04-01T19:06:41;1.17;;;0.82;;
46607;SDS011;32330;51.936;7.184;2023-04-01T19:09:17;0.88;;;0.68;;
46607;SDS011;32330;51.936;7.184;2023-04-01T19:11:53;3.20;;;0.90;;
46607;SDS011;32330;51.936;7.184;2023-04-01T19:14:37;1.67;;;0.77;;
46607;SDS011;32330;51.936;7.184;2023-04-01T19:17:15;1.65;;;1.10;;
46607;SDS011;32330;51.936;7.184;2023-04-01T19:19:48;0.98;;;0.60;;
46607;SDS011;32330;51.936;7.184;2023-04-01T19:22:26;1.63;;;1.00;;
46607;SDS011;32330;51.936;7.184;2023-04-01T19:25:13;2.92;;;1.15;;
46607;SDS011;32330;51.936;7.184;2023-04-01T19:27:50;2.90;;;1.17;;
46607;SDS011;32330;51.936;7.184;2023-04-01T19:30:26;1.70;;;1.00;;
46607;SDS011;32330;51.936;7.184;2023-04-01T19:33:05;1.88;;;1.38;;
46607;SDS011;32330;51.936;7.184;2023-04-01T19:38:14;1.30;;;1.10;;
46607;SDS011;32330;51.936;7.184;2023-04-01T19:40:52;1.83;;;1.38;;
46607;SDS011;32330;51.936;7.184;2023-04-01T19:43:25;1.48;;;1.00;;
46607;SDS011;32330;51.936;7.184;2023-04-01T19:46:07;1.95;;;1.35;;
46607;SDS011;32330;51.936;7.184;2023-04-01T19:48:49;1.60;;;0.93;;
46607;SDS011;32330;51.936;7.184;2023-04-01T19:51:27;1.30;;;1.02;;
46607;SDS011;32330;51.936;7.184;2023-04-01T19:54:01;1.42;;;1.00;;
46607;SDS011;32330;51.936;7.184;2023-04-01T19:56:39;3.78;;;1.30;;
46607;SDS011;32330;51.936;7.184;2023-04-01T19:59:14;1.15;;;0.93;;
46607;SDS011;32330;51.936;7.184;2023-04-01T20:01:48;2.85;;;1.40;;
46607;SDS011;32330;51.936;7.184;2023-04-01T20:04:20;1.40;;;1.30;;
46607;SDS011;32330;51.936;7.184;2023-04-01T20:06:54;2.13;;;1.52;;
46607;SDS011;32330;51.936;7.184;2023-04-01T20:09:31;1.63;;;1.50;;
46607;SDS011;32330;51.936;7.184;2023-04-01T20:12:15;2.10;;;1.90;;
46607;SDS011;32330;51.936;7.184;2023-04-01T20:14:52;1.85;;;1.55;;
46607;SDS011;32330;51.936;7.184;2023-04-01T20:17:24;1.58;;;1.48;;
46607;SDS011;32330;51.936;7.184;2023-04-01T20:19:57;1.80;;;1.27;;
46607;SDS011;32330;51.936;7.184;2023-04-01T20:22:32;1.67;;;1.50;;
46607;SDS011;32330;51.936;7.184;2023-04-01T20:25:08;2.00;;;1.75;;
46607;SDS011;32330;51.936;7.184;2023-04-01T20:27:40;1.80;;;1.60;;
46607;SDS011;32330;51.936;7.184;2023-04-01T20:33:19;1.80;;;1.65;;
46607;SDS011;32330;51.936;7.184;2023-04-01T20:36:00;1.90;;;1.70;;
46607;SDS011;32330;51.936;7.184;2023-04-01T20:38:49;2.95;;;1.70;;
46607;SDS011;32330;51.936;7.184;2023-04-01T20:41:44;2.13;;;1.92;;
46607;SDS011;32330;51.936;7.184;2023-04-01T20:44:27;2.00;;;1.80;;
46607;SDS011;32330;51.936;7.184;2023-04-01T20:47:06;1.77;;;1.45;;
46607;SDS011;32330;51.936;7.184;2023-04-01T20:49:44;2.88;;;2.22;;
46607;SDS011;32330;51.936;7.184;2023-04-01T20:52:24;2.10;;;1.90;;
46607;SDS011;32330;51.936;7.184;2023-04-01T20:55:00;4.28;;;1.85;;
46607;SDS011;32330;51.936;7.184;2023-04-01T20:57:44;2.22;;;2.00;;
46607;SDS011;32330;51.936;7.184;2023-04-01T21:00:27;2.63;;;1.75;;
46607;SDS011;32330;51.936;7.184;2023-04-01T21:03:10;2.78;;;1.60;;
46607;SDS011;32330;51.936;7.184;2023-04-01T21:05:48;2.67;;;1.77;;
46607;SDS011;32330;51.936;7.184;2023-04-01T21:08:28;2.55;;;2.35;;
46607;SDS011;32330;51.936;7.184;2023-04-01T21:11:08;1.73;;;1.60;;
46607;SDS011;32330;51.936;7.184;2023-04-01T21:13:50;3.33;;;1.55;;
46607;SDS011;32330;51.936;7.184;2023-04-01T21:16:41;1.73;;;1.45;;
46607;SDS011;32330;51.936;7.184;2023-04-01T21:19:21;2.92;;;1.80;;
46607;SDS011;32330;51.936;7.184;2023-04-01T21:22:02;2.13;;;1.85;;
46607;SDS011;32330;51.936;7.184;2023-04-01T21:24:44;2.15;;;1.75;;